createdAt,value
2022-09-29T00:02:19.506Z,6.80
2022-09-29T00:04:46.083Z,6.63
2022-09-29T00:07:12.724Z,7.50
2022-09-29T00:09:39.245Z,6.40
2022-09-29T00:12:05.823Z,6.70
2022-09-29T00:14:32.373Z,6.57
2022-09-29T00:16:58.938Z,7.27
2022-09-29T00:19:25.415Z,6.90
2022-09-29T00:21:51.962Z,6.90
2022-09-29T00:24:18.528Z,7.03
2022-09-29T00:26:45.098Z,7.37
2022-09-29T00:29:11.677Z,7.20
2022-09-29T00:31:38.265Z,7.50
2022-09-29T00:34:04.883Z,6.67
2022-09-29T00:36:31.485Z,5.77
2022-09-29T00:38:58.049Z,5.37
2022-09-29T00:41:24.560Z,5.60
2022-09-29T00:43:51.108Z,5.87
2022-09-29T00:46:17.603Z,5.70
2022-09-29T00:48:44.213Z,6.07
2022-09-29T00:51:10.681Z,5.50
2022-09-29T00:53:37.158Z,5.50
2022-09-29T00:56:04.734Z,5.07
2022-09-29T00:58:31.248Z,4.87
2022-09-29T01:00:57.811Z,5.30
2022-09-29T01:03:24.381Z,5.20
2022-09-29T01:05:50.911Z,4.53
2022-09-29T01:08:17.455Z,4.13
2022-09-29T01:10:43.924Z,4.50
2022-09-29T01:13:10.396Z,4.30
2022-09-29T01:15:36.938Z,4.70
2022-09-29T01:18:03.540Z,4.93
2022-09-29T01:20:30.043Z,5.27
2022-09-29T01:22:56.569Z,5.37
2022-09-29T01:25:23.036Z,5.73
2022-09-29T01:27:49.546Z,5.57
2022-09-29T01:30:16.042Z,5.60
2022-09-29T01:32:42.546Z,4.77
2022-09-29T01:35:09.062Z,4.43
2022-09-29T01:37:35.568Z,4.83
2022-09-29T01:40:02.100Z,4.90
2022-09-29T01:42:28.822Z,5.33
2022-09-29T01:44:55.326Z,5.43
2022-09-29T01:47:21.902Z,5.00
2022-09-29T01:49:48.399Z,4.77
2022-09-29T01:52:14.930Z,5.20
2022-09-29T01:54:41.444Z,5.23
2022-09-29T01:57:07.998Z,5.30
2022-09-29T01:59:34.535Z,5.33
2022-09-29T02:02:01.227Z,5.90
2022-09-29T02:04:27.824Z,6.27
2022-09-29T02:06:54.306Z,6.87
2022-09-29T02:09:20.781Z,5.70
2022-09-29T02:11:47.334Z,7.17
2022-09-29T02:14:13.989Z,5.70
2022-09-29T02:16:40.644Z,6.03
2022-09-29T02:19:07.232Z,6.03
2022-09-29T02:21:33.729Z,6.77
2022-09-29T02:24:00.276Z,5.50
2022-09-29T02:26:26.811Z,6.60
2022-09-29T02:28:53.388Z,6.73
2022-09-29T02:31:20.065Z,5.80
2022-09-29T02:33:46.649Z,6.50
2022-09-29T02:36:13.193Z,5.97
2022-09-29T02:38:39.685Z,6.37
2022-09-29T02:41:06.193Z,6.40
2022-09-29T02:43:32.714Z,6.60
2022-09-29T02:45:59.252Z,6.40
2022-09-29T02:48:25.819Z,7.00
2022-09-29T02:50:52.329Z,7.30
2022-09-29T02:53:18.842Z,7.30
2022-09-29T02:55:45.376Z,7.37
2022-09-29T02:58:11.926Z,6.80
2022-09-29T03:00:38.512Z,7.60
2022-09-29T03:03:05.080Z,9.40
2022-09-29T03:05:31.617Z,8.17
2022-09-29T03:07:58.111Z,8.33
2022-09-29T03:10:29.260Z,6.73
2022-09-29T03:12:56.654Z,6.30
2022-09-29T03:15:23.161Z,6.50
2022-09-29T03:17:49.681Z,6.73
2022-09-29T03:20:16.236Z,6.53
2022-09-29T03:22:42.745Z,6.90
2022-09-29T03:25:09.241Z,6.77
2022-09-29T03:27:35.755Z,6.93
2022-09-29T03:30:02.330Z,6.70
2022-09-29T03:32:28.845Z,6.97
2022-09-29T03:34:55.340Z,7.47
2022-09-29T03:37:21.825Z,6.87
2022-09-29T03:39:48.289Z,6.83
2022-09-29T03:42:14.818Z,6.37
2022-09-29T03:44:41.317Z,7.17
2022-09-29T03:47:07.879Z,7.30
2022-09-29T03:49:34.419Z,7.07
2022-09-29T03:52:00.941Z,7.47
2022-09-29T03:54:27.493Z,7.07
2022-09-29T03:56:53.968Z,7.93
2022-09-29T03:59:20.643Z,7.23
2022-09-29T04:01:47.243Z,7.27
2022-09-29T04:04:13.844Z,7.90
2022-09-29T04:06:40.459Z,7.53
2022-09-29T04:09:06.954Z,8.13
2022-09-29T04:11:33.483Z,7.90
2022-09-29T04:14:00.046Z,7.43
2022-09-29T04:16:26.704Z,7.77
2022-09-29T04:18:53.311Z,7.53
2022-09-29T04:21:19.888Z,7.53
2022-09-29T04:23:46.428Z,7.37
2022-09-29T04:26:12.950Z,6.43
2022-09-29T04:28:39.535Z,6.20
2022-09-29T04:31:06.169Z,6.33
2022-09-29T04:33:32.681Z,6.73
2022-09-29T04:35:59.233Z,6.80
2022-09-29T04:38:25.769Z,7.20
2022-09-29T04:40:52.388Z,6.00
2022-09-29T04:43:19.007Z,6.20
2022-09-29T04:45:45.601Z,5.87
2022-09-29T04:48:12.182Z,6.37
2022-09-29T04:50:38.702Z,6.73
2022-09-29T04:53:05.219Z,5.37
2022-09-29T04:55:31.713Z,5.73
2022-09-29T04:57:59.349Z,6.93
2022-09-29T05:00:25.870Z,7.00
2022-09-29T05:02:52.405Z,7.17
2022-09-29T05:05:18.991Z,7.50
2022-09-29T05:07:45.548Z,7.10
2022-09-29T05:10:12.085Z,7.77
2022-09-29T05:12:38.637Z,7.03
2022-09-29T05:15:05.142Z,6.23
2022-09-29T05:17:31.617Z,7.33
2022-09-29T05:19:58.206Z,7.73
2022-09-29T05:22:24.942Z,9.20
2022-09-29T05:24:51.436Z,8.50
2022-09-29T05:27:20.135Z,8.40
2022-09-29T05:29:46.665Z,8.07
2022-09-29T05:32:13.206Z,8.83
2022-09-29T05:34:39.698Z,9.53
2022-09-29T05:37:06.294Z,9.20
2022-09-29T05:39:32.790Z,8.97
2022-09-29T05:41:59.810Z,10.20
2022-09-29T05:44:26.397Z,9.93
2022-09-29T05:46:52.959Z,9.10
2022-09-29T05:49:19.477Z,11.07
2022-09-29T05:51:46.254Z,9.00
2022-09-29T05:54:12.786Z,9.53
2022-09-29T05:56:44.408Z,12.10
2022-09-29T05:59:11.879Z,11.60
2022-09-29T06:01:38.514Z,8.90
2022-09-29T06:04:05.119Z,9.07
2022-09-29T06:06:31.712Z,13.17
2022-09-29T06:08:58.384Z,10.07
2022-09-29T06:11:24.965Z,10.03
2022-09-29T06:13:51.508Z,9.07
2022-09-29T06:16:19.160Z,7.40
2022-09-29T06:18:45.745Z,7.97
2022-09-29T06:21:12.430Z,7.13
2022-09-29T06:23:38.955Z,9.87
2022-09-29T06:26:05.462Z,10.03
2022-09-29T06:28:32.014Z,7.57
2022-09-29T06:30:58.622Z,9.87
2022-09-29T06:33:25.142Z,9.80
2022-09-29T06:35:51.761Z,11.23
2022-09-29T06:38:18.368Z,7.33
2022-09-29T06:40:44.952Z,7.00
2022-09-29T06:43:11.504Z,5.93
2022-09-29T06:45:38.052Z,6.53
2022-09-29T06:48:04.615Z,16.80
2022-09-29T06:50:31.198Z,15.50
2022-09-29T06:53:03.829Z,7.37
2022-09-29T06:55:31.098Z,9.13
2022-09-29T06:58:01.445Z,9.60
2022-09-29T07:00:30.462Z,9.80
2022-09-29T07:02:57.075Z,9.40
2022-09-29T07:05:23.724Z,9.30
2022-09-29T07:07:53.161Z,9.47
2022-09-29T07:10:21.189Z,8.83
2022-09-29T07:12:47.786Z,8.83
2022-09-29T07:15:14.265Z,8.03
2022-09-29T07:17:40.766Z,7.77
2022-09-29T07:20:07.582Z,7.73
2022-09-29T07:22:34.315Z,6.63
2022-09-29T07:25:00.889Z,8.03
2022-09-29T07:27:27.444Z,8.93
2022-09-29T07:30:03.172Z,9.20
2022-09-29T07:32:30.434Z,7.30
2022-09-29T07:34:57.098Z,7.03
2022-09-29T07:37:23.589Z,6.47
2022-09-29T07:39:50.134Z,7.40
2022-09-29T07:42:16.783Z,5.50
2022-09-29T07:44:43.320Z,5.17
2022-09-29T07:47:09.870Z,4.63
2022-09-29T07:49:36.385Z,3.90
2022-09-29T07:52:03.102Z,4.13
2022-09-29T07:54:30.132Z,4.13
2022-09-29T07:56:56.977Z,3.87
2022-09-29T07:59:23.535Z,4.43
2022-09-29T08:01:50.127Z,4.63
2022-09-29T08:04:16.729Z,3.40
2022-09-29T08:06:43.281Z,3.50
2022-09-29T08:09:09.791Z,3.20
2022-09-29T08:11:36.305Z,2.50
2022-09-29T08:14:02.862Z,1.97
2022-09-29T08:16:29.457Z,2.40
2022-09-29T08:18:55.997Z,2.27
2022-09-29T08:21:22.595Z,2.53
2022-09-29T08:23:49.123Z,3.40
2022-09-29T08:26:15.736Z,3.70
2022-09-29T08:28:42.293Z,2.20
2022-09-29T08:31:08.922Z,2.33
2022-09-29T08:33:35.468Z,2.60
2022-09-29T08:36:01.974Z,2.37
2022-09-29T08:38:28.631Z,1.90
2022-09-29T08:40:55.212Z,2.47
2022-09-29T08:43:32.383Z,2.60
2022-09-29T08:46:01.188Z,2.10
2022-09-29T08:48:27.877Z,2.47
2022-09-29T08:50:54.413Z,1.93
2022-09-29T08:53:28.165Z,1.30
2022-09-29T08:55:55.515Z,1.63
2022-09-29T08:58:22.059Z,1.43
2022-09-29T09:00:48.740Z,2.10
2022-09-29T09:03:15.268Z,2.30
2022-09-29T09:05:41.751Z,2.10
2022-09-29T09:08:08.324Z,1.60
2022-09-29T09:10:34.928Z,2.00
2022-09-29T09:13:01.487Z,1.70
2022-09-29T09:15:27.991Z,2.00
2022-09-29T09:17:54.584Z,1.70
2022-09-29T09:20:22.317Z,2.00
2022-09-29T09:22:49.126Z,2.37
2022-09-29T09:25:15.686Z,2.30
2022-09-29T09:27:42.207Z,2.30
2022-09-29T09:30:08.806Z,3.50
2022-09-29T09:32:35.419Z,3.07
2022-09-29T09:35:16.335Z,2.80
2022-09-29T09:37:47.534Z,3.50
2022-09-29T09:40:14.069Z,2.57
2022-09-29T09:42:40.587Z,2.83
2022-09-29T09:45:07.078Z,2.37
2022-09-29T09:47:33.590Z,2.20
2022-09-29T09:50:00.155Z,2.57
2022-09-29T09:52:26.700Z,3.30
2022-09-29T09:54:53.250Z,3.40
2022-09-29T09:57:19.770Z,3.10
2022-09-29T09:59:46.345Z,2.40
2022-09-29T10:02:12.927Z,2.90
2022-09-29T10:04:39.503Z,1.80
2022-09-29T10:07:06.024Z,2.30
2022-09-29T10:09:32.603Z,1.90
2022-09-29T10:11:59.169Z,2.83
2022-09-29T10:14:25.739Z,2.87
2022-09-29T10:16:52.297Z,2.47
2022-09-29T10:19:18.802Z,2.80
2022-09-29T10:21:45.290Z,2.60
2022-09-29T10:24:11.878Z,2.53
2022-09-29T10:26:38.421Z,1.90
2022-09-29T10:29:04.908Z,2.07
2022-09-29T10:31:31.475Z,2.00
2022-09-29T10:33:58.019Z,2.40
2022-09-29T10:36:24.551Z,2.27
2022-09-29T10:38:51.106Z,2.17
2022-09-29T10:41:17.687Z,2.50
2022-09-29T10:43:44.208Z,1.80
2022-09-29T10:46:10.773Z,1.90
2022-09-29T10:48:37.420Z,1.90
2022-09-29T10:51:03.978Z,1.57
2022-09-29T10:53:30.506Z,2.10
2022-09-29T10:55:57.137Z,1.77
2022-09-29T10:58:44.263Z,1.87
2022-09-29T11:01:10.448Z,1.50
2022-09-29T11:03:36.997Z,1.80
2022-09-29T11:06:03.494Z,1.70
2022-09-29T11:08:30.004Z,1.60
2022-09-29T11:10:56.643Z,1.20
2022-09-29T11:13:23.165Z,1.80
2022-09-29T11:15:49.654Z,1.80
2022-09-29T11:18:16.186Z,1.37
2022-09-29T11:20:42.725Z,1.30
2022-09-29T11:23:09.261Z,1.90
2022-09-29T11:25:35.827Z,2.53
2022-09-29T11:28:02.313Z,2.40
2022-09-29T11:30:28.845Z,2.23
2022-09-29T11:32:58.479Z,2.53
2022-09-29T11:35:24.981Z,1.87
2022-09-29T11:37:51.499Z,2.20
2022-09-29T11:40:18.059Z,1.70
2022-09-29T11:42:44.621Z,1.67
2022-09-29T11:45:11.168Z,2.07
2022-09-29T11:47:37.997Z,1.33
2022-09-29T11:50:04.486Z,1.40
2022-09-29T11:52:31.082Z,1.50
2022-09-29T11:54:57.636Z,1.43
2022-09-29T11:57:24.136Z,1.20
2022-09-29T11:59:50.689Z,1.30
2022-09-29T12:02:17.340Z,1.50
2022-09-29T12:04:43.876Z,1.77
2022-09-29T12:07:10.424Z,2.00
2022-09-29T12:09:37.041Z,2.23
2022-09-29T12:12:23.661Z,1.83
2022-09-29T12:14:50.092Z,1.80
2022-09-29T12:17:16.608Z,1.97
2022-09-29T12:19:43.162Z,1.63
2022-09-29T12:22:09.664Z,1.73
2022-09-29T12:24:36.240Z,1.70
2022-09-29T12:27:02.727Z,1.97
2022-09-29T12:29:29.248Z,1.63
2022-09-29T12:31:55.777Z,2.00
2022-09-29T12:34:22.272Z,1.60
2022-09-29T12:36:48.832Z,1.57
2022-09-29T12:39:15.417Z,1.50
2022-09-29T12:41:42.426Z,1.50
2022-09-29T12:44:08.964Z,1.53
2022-09-29T12:46:35.491Z,1.40
2022-09-29T12:49:02.064Z,1.30
2022-09-29T12:51:28.570Z,1.40
2022-09-29T12:53:55.076Z,1.37
2022-09-29T12:56:21.594Z,1.20
2022-09-29T12:58:48.109Z,1.30
2022-09-29T13:01:14.759Z,1.10
2022-09-29T13:03:41.301Z,1.43
2022-09-29T13:06:07.825Z,1.17
2022-09-29T13:08:34.360Z,1.23
2022-09-29T13:11:00.892Z,1.47
2022-09-29T13:13:27.484Z,1.20
2022-09-29T13:15:54.115Z,1.13
2022-09-29T13:18:20.690Z,1.30
2022-09-29T13:20:48.235Z,1.10
2022-09-29T13:23:14.760Z,1.30
2022-09-29T13:25:41.312Z,1.33
2022-09-29T13:28:07.834Z,1.40
2022-09-29T13:30:34.365Z,1.47
2022-09-29T13:33:01.041Z,1.13
2022-09-29T13:35:27.589Z,1.00
2022-09-29T13:37:54.062Z,1.03
2022-09-29T13:40:20.612Z,0.80
2022-09-29T13:42:47.131Z,1.10
2022-09-29T13:45:13.746Z,1.27
2022-09-29T13:47:40.212Z,0.80
2022-09-29T13:50:06.705Z,1.10
2022-09-29T13:52:33.211Z,1.00
2022-09-29T13:54:59.776Z,1.00
2022-09-29T13:57:27.929Z,1.07
2022-09-29T13:59:55.047Z,1.00
2022-09-29T14:02:21.848Z,1.00
2022-09-29T14:04:48.418Z,1.00
2022-09-29T14:07:14.980Z,1.13
2022-09-29T14:09:41.704Z,0.90
2022-09-29T14:12:08.252Z,1.10
2022-09-29T14:14:34.748Z,1.30
2022-09-29T14:17:01.252Z,1.20
2022-09-29T14:19:27.825Z,1.00
2022-09-29T14:21:54.406Z,0.90
2022-09-29T14:24:21.108Z,1.10
2022-09-29T14:26:47.597Z,1.00
2022-09-29T14:29:14.122Z,1.00
2022-09-29T14:31:40.673Z,1.00
2022-09-29T14:34:07.190Z,1.57
2022-09-29T14:36:33.676Z,1.00
2022-09-29T14:39:25.122Z,3.13
2022-09-29T14:41:46.943Z,1.17
2022-09-29T14:44:13.554Z,1.00
2022-09-29T14:46:40.173Z,1.27
2022-09-29T14:49:06.681Z,1.50
2022-09-29T14:51:33.317Z,1.73
2022-09-29T14:53:59.895Z,2.20
2022-09-29T14:56:26.385Z,1.60
2022-09-29T14:58:52.991Z,1.70
2022-09-29T15:01:19.518Z,1.50
2022-09-29T15:03:46.364Z,1.13
2022-09-29T15:06:12.970Z,1.20
2022-09-29T15:08:39.528Z,1.10
2022-09-29T15:11:06.093Z,1.20
2022-09-29T15:13:32.583Z,1.10
2022-09-29T15:15:59.176Z,0.80
2022-09-29T15:18:25.778Z,1.20
2022-09-29T15:20:52.293Z,1.20
2022-09-29T15:23:18.912Z,0.87
2022-09-29T15:25:45.436Z,1.20
2022-09-29T15:28:11.902Z,1.57
2022-09-29T15:30:38.605Z,1.60
2022-09-29T15:33:05.231Z,1.50
2022-09-29T15:35:31.881Z,1.10
2022-09-29T15:37:58.398Z,1.30
2022-09-29T15:40:24.907Z,1.03
2022-09-29T15:42:51.477Z,1.13
2022-09-29T15:45:17.997Z,1.30
2022-09-29T15:47:44.517Z,1.10
2022-09-29T15:50:11.081Z,1.10
2022-09-29T15:52:37.666Z,1.47
2022-09-29T15:55:04.239Z,1.20
2022-09-29T15:57:30.819Z,1.10
2022-09-29T15:59:57.336Z,1.20
2022-09-29T16:02:23.948Z,1.20
2022-09-29T16:04:50.665Z,1.40
2022-09-29T16:07:17.182Z,1.00
2022-09-29T16:09:43.775Z,1.40
2022-09-29T16:12:10.404Z,1.53
2022-09-29T16:14:36.996Z,1.70
2022-09-29T16:17:03.540Z,1.60
2022-09-29T16:19:30.086Z,2.60
2022-09-29T16:21:56.700Z,1.33
2022-09-29T16:24:23.219Z,1.33
2022-09-29T16:26:49.732Z,1.23
2022-09-29T16:29:16.250Z,1.30
2022-09-29T16:31:42.858Z,1.20
2022-09-29T16:34:09.337Z,1.63
2022-09-29T16:36:35.847Z,1.50
2022-09-29T16:39:02.387Z,1.67
2022-09-29T16:41:28.904Z,1.40
2022-09-29T16:43:55.454Z,1.97
2022-09-29T16:46:22.027Z,1.90
2022-09-29T16:48:48.617Z,2.00
2022-09-29T16:51:37.743Z,1.63
2022-09-29T16:54:01.684Z,2.53
2022-09-29T16:56:28.257Z,1.57
2022-09-29T16:58:54.802Z,1.90
2022-09-29T17:01:21.371Z,2.20
2022-09-29T17:03:47.945Z,2.17
2022-09-29T17:06:14.506Z,1.80
2022-09-29T17:08:41.100Z,1.93
2022-09-29T17:11:07.627Z,1.77
2022-09-29T17:13:34.323Z,1.63
2022-09-29T17:16:00.956Z,2.00
2022-09-29T17:18:27.529Z,1.50
2022-09-29T17:20:54.073Z,1.73
2022-09-29T17:23:20.549Z,1.53
2022-09-29T17:25:47.186Z,1.53
2022-09-29T17:28:13.788Z,1.80
2022-09-29T17:30:40.382Z,1.60
2022-09-29T17:33:06.960Z,1.40
2022-09-29T17:35:33.468Z,1.60
2022-09-29T17:37:59.944Z,1.40
2022-09-29T17:40:26.469Z,1.47
2022-09-29T17:42:53.104Z,1.87
2022-09-29T17:45:19.580Z,1.97
2022-09-29T17:47:46.166Z,1.70
2022-09-29T17:50:12.777Z,1.53
2022-09-29T17:52:39.293Z,1.83
2022-09-29T17:55:05.833Z,1.70
2022-09-29T17:57:32.386Z,1.60
2022-09-29T17:59:58.864Z,1.70
2022-09-29T18:02:25.489Z,1.70
2022-09-29T18:04:52.109Z,2.07
2022-09-29T18:07:18.592Z,2.50
2022-09-29T18:09:45.183Z,2.73
2022-09-29T18:12:11.742Z,1.97
2022-09-29T18:14:38.269Z,2.27
2022-09-29T18:17:04.857Z,2.00
2022-09-29T18:19:31.381Z,2.10
2022-09-29T18:21:57.969Z,1.73
2022-09-29T18:24:24.470Z,2.20
2022-09-29T18:26:51.019Z,2.30
2022-09-29T18:29:17.534Z,2.27
2022-09-29T18:31:44.092Z,1.90
2022-09-29T18:34:10.663Z,1.80
2022-09-29T18:36:37.234Z,1.90
2022-09-29T18:39:03.796Z,2.07
2022-09-29T18:41:30.267Z,2.17
2022-09-29T18:43:58.922Z,1.97
2022-09-29T18:46:26.309Z,2.30
2022-09-29T18:48:52.886Z,2.10
2022-09-29T18:51:21.284Z,2.30
2022-09-29T18:53:48.456Z,2.20
2022-09-29T18:56:14.933Z,2.23
2022-09-29T18:58:41.577Z,2.07
2022-09-29T19:01:08.065Z,2.33
2022-09-29T19:03:34.576Z,1.97
2022-09-29T19:06:01.081Z,2.53
2022-09-29T19:08:27.657Z,2.43
2022-09-29T19:10:54.217Z,2.70
2022-09-29T19:13:20.752Z,2.20
2022-09-29T19:15:47.333Z,2.80
2022-09-29T19:18:13.886Z,3.37
2022-09-29T19:20:40.381Z,2.67
2022-09-29T19:23:06.853Z,2.40
2022-09-29T19:25:33.428Z,2.43
2022-09-29T19:27:59.946Z,2.50
2022-09-29T19:30:26.438Z,1.90
2022-09-29T19:32:52.939Z,2.00
2022-09-29T19:35:19.491Z,2.40
2022-09-29T19:37:46.008Z,2.00
2022-09-29T19:40:12.505Z,2.03
2022-09-29T19:42:39.056Z,1.90
2022-09-29T19:45:05.531Z,1.90
2022-09-29T19:47:32.101Z,1.80
2022-09-29T19:49:58.574Z,2.30
2022-09-29T19:52:25.075Z,1.97
2022-09-29T19:54:51.673Z,1.93
2022-09-29T19:57:18.205Z,1.97
2022-09-29T19:59:44.846Z,2.00
2022-09-29T20:02:11.383Z,2.30
2022-09-29T20:04:37.967Z,2.67
2022-09-29T20:07:04.454Z,2.10
2022-09-29T20:09:30.966Z,2.17
2022-09-29T20:11:57.497Z,2.23
2022-09-29T20:14:24.128Z,2.33
2022-09-29T20:16:50.652Z,2.27
2022-09-29T20:19:17.134Z,2.00
2022-09-29T20:21:43.632Z,2.07
2022-09-29T20:24:10.174Z,2.23
2022-09-29T20:26:38.281Z,2.10
2022-09-29T20:29:04.808Z,1.90
2022-09-29T20:31:31.407Z,2.47
2022-09-29T20:33:58.005Z,2.10
2022-09-29T20:36:24.520Z,2.30
2022-09-29T20:38:51.086Z,2.77
2022-09-29T20:41:17.642Z,2.30
2022-09-29T20:43:44.162Z,2.77
2022-09-29T20:46:10.832Z,2.70
2022-09-29T20:48:37.357Z,2.63
2022-09-29T20:51:03.885Z,2.70
2022-09-29T20:53:30.398Z,3.00
2022-09-29T20:55:56.928Z,2.90
2022-09-29T20:58:23.413Z,2.70
2022-09-29T21:00:49.990Z,2.70
2022-09-29T21:03:16.523Z,2.97
2022-09-29T21:05:43.087Z,2.80
2022-09-29T21:08:09.664Z,2.80
2022-09-29T21:10:36.221Z,3.37
2022-09-29T21:13:02.742Z,3.73
2022-09-29T21:15:29.299Z,2.90
2022-09-29T21:17:55.798Z,3.10
2022-09-29T21:20:22.333Z,2.90
2022-09-29T21:22:48.839Z,3.80
2022-09-29T21:25:15.321Z,3.40
2022-09-29T21:27:41.841Z,3.23
2022-09-29T21:30:08.411Z,3.43
2022-09-29T21:32:34.927Z,2.93
2022-09-29T21:35:01.438Z,3.40
2022-09-29T21:37:27.973Z,3.27
2022-09-29T21:39:54.506Z,3.23
2022-09-29T21:42:20.985Z,3.03
2022-09-29T21:44:47.549Z,3.47
2022-09-29T21:47:14.090Z,3.50
2022-09-29T21:49:40.628Z,3.57
2022-09-29T21:52:07.160Z,3.50
2022-09-29T21:54:33.676Z,3.60
2022-09-29T21:57:00.203Z,3.70
2022-09-29T21:59:26.782Z,3.50
2022-09-29T22:01:53.477Z,3.37
2022-09-29T22:04:20.096Z,4.03
2022-09-29T22:06:46.638Z,3.80
2022-09-29T22:09:13.173Z,2.70
2022-09-29T22:11:39.757Z,3.63
2022-09-29T22:14:06.332Z,3.50
2022-09-29T22:16:32.892Z,3.93
2022-09-29T22:19:22.575Z,3.43
2022-09-29T22:21:45.883Z,3.30
2022-09-29T22:24:12.396Z,3.80
2022-09-29T22:26:38.884Z,3.67
2022-09-29T22:29:05.813Z,3.87
2022-09-29T22:31:32.361Z,3.30
2022-09-29T22:33:58.934Z,3.27
2022-09-29T22:36:25.699Z,3.43
2022-09-29T22:38:52.233Z,3.20
2022-09-29T22:41:18.705Z,3.03
2022-09-29T22:43:45.272Z,3.27
2022-09-29T22:46:11.818Z,3.70
2022-09-29T22:48:38.375Z,3.80
2022-09-29T22:51:04.935Z,3.80
2022-09-29T22:53:31.501Z,3.73
2022-09-29T22:55:58.033Z,3.50
2022-09-29T22:58:30.246Z,3.50
2022-09-29T23:00:56.783Z,3.83
2022-09-29T23:03:23.281Z,3.90
2022-09-29T23:05:49.936Z,3.70
2022-09-29T23:08:16.478Z,3.90
2022-09-29T23:10:42.958Z,3.80
2022-09-29T23:13:10.814Z,3.90
2022-09-29T23:15:37.337Z,4.30
2022-09-29T23:18:03.887Z,3.57
2022-09-29T23:20:30.427Z,3.80
2022-09-29T23:22:56.941Z,3.50
2022-09-29T23:25:23.426Z,3.73
2022-09-29T23:27:50.074Z,3.63
2022-09-29T23:30:16.678Z,3.20
2022-09-29T23:32:43.163Z,3.80
2022-09-29T23:35:09.648Z,3.50
2022-09-29T23:37:36.161Z,3.90
2022-09-29T23:40:02.638Z,3.90
2022-09-29T23:42:29.162Z,3.73
2022-09-29T23:44:55.721Z,3.63
2022-09-29T23:47:22.188Z,3.77
2022-09-29T23:49:48.671Z,3.50
2022-09-29T23:52:15.184Z,3.30
2022-09-29T23:54:41.687Z,4.00
2022-09-29T23:57:08.200Z,3.80
2022-09-29T23:59:34.722Z,4.43
